Data for 07/05/2013

Time Sea-Level Adjusted Pressure Absolute Pressure Temperature Relative Humidity Dew Point   
(mb) (inHg) (mb) (inHg) (C) (F) (%) (C) (F)
00:05 1014 29.94 843 24.89 18.5 65.2 58 10.2 50.4
00:10 1014 29.94 843 24.89 18.5 65.2 58 10.2 50.4
00:15 1014 29.94 843 24.89 18.4 65.2 58 10 50.1
00:20 1014 29.94 843 24.89 18.4 65.1 59 10.3 50.5
00:25 1014 29.94 843 24.89 18.2 64.7 60 10.3 50.5
00:30 1014 29.94 843 24.89 17.9 64.2 61 10.3 50.5
00:35 1014 29.94 843 24.89 17.8 64 60 9.9 49.8
00:40 1014 29.94 843 24.89 17.8 64 59 9.8 49.6
00:45 1014 29.94 843 24.89 17.9 64.2 61 10.2 50.4
00:50 1014 29.94 843 24.89 18 64.5 59 9.9 49.9
00:55 1014 29.94 843 24.89 18.2 64.7 57 9.7 49.5
01:00 1014 29.94 843 24.89 18.2 64.8 57 9.6 49.3
01:05 1014 29.94 843 24.89 18.2 64.8 56 9.3 48.8
01:10 1014 29.94 843 24.89 18.2 64.8 57 9.7 49.4
01:15 1014 29.94 843 24.89 18.2 64.7 58 9.9 49.8
01:20 1014 29.94 843 24.89 18 64.4 58 9.7 49.5
01:25 1014 29.94 843 24.89 18 64.4 58 9.7 49.5
01:30 1014 29.94 843 24.89 17.8 64 59 9.8 49.7
01:35 1014 29.94 843 24.89 17.8 64 59 9.8 49.6
01:40 1014 29.94 843 24.89 17.8 64 60 9.9 49.8
01:45 1014 29.94 843 24.89 17.6 63.7 59 9.6 49.4
01:50 1014 29.94 843 24.89 17.6 63.6 64 10.7 51.2
01:55 1014 29.94 843 24.89 18 64.4 56 9.3 48.8
02:00 1014 29.94 843 24.89 18.1 64.6 55 9 48.2
02:05 1014 29.94 843 24.89 18 64.4 57 9.6 49.2
02:10 1014 29.94 843 24.89 17.7 63.9 59 9.8 49.6
02:15 1014 29.94 843 24.89 17.4 63.4 60 9.8 49.6
02:20 1014 29.94 843 24.89 17.3 63.1 61 9.8 49.6
02:25 1014 29.94 843 24.89 17.2 62.9 61 9.7 49.5
02:30 1014 29.94 843 24.89 17.2 62.9 61 9.6 49.3
02:35 1014 29.94 843 24.89 17.2 62.9 61 9.6 49.2
02:40 1014 29.94 843 24.89 17.1 62.7 60 9.4 48.9
02:45 1014 29.94 843 24.89 16.9 62.5 62 9.7 49.4
02:50 1014 29.94 843 24.89 16.6 61.8 63 9.6 49.3
02:55 1014 29.94 843 24.89 16 60.9 63 9.1 48.3
03:00 1014 29.94 843 24.89 16.1 61 62 8.9 48
03:05 1014 29.94 843 24.89 16.1 61 63 9.2 48.5
03:10 1014 29.94 843 24.89 16.2 61.1 66 9.9 49.8
03:15 1014 29.94 843 24.89 16.4 61.5 62 9.2 48.6
03:20 1014 29.94 843 24.89 16.3 61.3 63 9.3 48.7
03:25 1014 29.94 843 24.89 16.3 61.3 62 9.2 48.5
03:30 1014 29.94 843 24.89 16.2 61.1 64 9.4 48.9
03:35 1014 29.94 843 24.89 16.2 61.2 65 9.6 49.3
03:40 1014 29.94 843 24.89 16.4 61.5 63 9.4 49
03:45 1014 29.94 843 24.89 16.4 61.6 63 9.4 48.9
03:50 1014 29.94 843 24.89 16.5 61.7 63 9.5 49.1
03:55 1014 29.94 843 24.89 16.4 61.6 69 10.7 51.3
04:00 1014 29.94 843 24.89 16.6 61.9 63 9.6 49.3
04:05 1014 29.94 843 24.89 16.9 62.3 61 9.3 48.8
04:10 1014 29.94 844 24.92 17.2 63 60 9.4 49
04:15 1014 29.94 844 24.92 17.3 63.2 60 9.6 49.3
04:20 1014 29.94 844 24.92 17.3 63.1 61 9.9 49.8
04:25 1014 29.94 844 24.92 17.1 62.8 62 9.8 49.7
04:30 1014 29.94 844 24.92 17.1 62.7 61 9.7 49.4
04:35 1015 29.97 844 24.92 17.2 63 58 9 48.3
04:40 1015 29.97 844 24.92 17.4 63.2 61 9.8 49.7
04:45 1015 29.97 844 24.92 17 62.6 62 9.9 49.7
04:50 1015 29.97 844 24.92 16.9 62.5 61 9.5 49.1
04:55 1015 29.97 844 24.92 16.9 62.4 59 8.9 47.9
05:00 1015 29.97 844 24.92 16.8 62.2 60 9.2 48.5
05:05 1015 29.97 844 24.92 16.7 62 57 8.3 46.9
05:10 1015 29.97 844 24.92 16.9 62.5 58 8.7 47.7
05:15 1015 29.97 845 24.95 17 62.6 61 9.4 49
05:20 1016 30 845 24.95 16.9 62.5 61 9.4 48.9
05:25 1016 30 845 24.95 16.6 61.9 67 10.5 50.9
05:30 1016 30 845 24.95 15.3 59.5 72 10.4 50.8
05:35 1016 30 845 24.95 14.7 58.4 69 9 48.2
05:40 1016 30 845 24.95 15 59.1 65 8.6 47.5
05:45 1016 30 845 24.95 15.1 59.3 67 9.2 48.6
05:50 1016 30 845 24.95 15 59.1 70 9.7 49.5
05:55 1016 30 845 24.95 14.8 58.6 77 10.8 51.4
06:00 1016 30 845 24.95 14.6 58.2 78 10.9 51.6
06:05 1016 30 845 24.95 14.2 57.5 76 10.1 50.2
06:10 1016 30 845 24.95 14.6 58.3 74 10 50
06:15 1016 30 845 24.95 14.5 58.1 79 10.9 51.6
06:20 1016 30 845 24.95 14.2 57.6 79 10.7 51.3
06:25 1016 30 845 24.95 14.3 57.7 77 10.2 50.4
06:30 1016 30 845 24.95 14.4 58 77 10.4 50.8
06:35 1016 30 845 24.95 14.4 58 80 11.1 52
06:40 1016 30 845 24.95 14.3 57.7 79 10.8 51.4
06:45 1016 30 845 24.95 14.4 57.9 79 10.9 51.6
06:50 1016 30 845 24.95 14.5 58.1 81 11.2 52.2
06:55 1016 30 845 24.95 14.6 58.3 78 10.8 51.5
07:00 1016 30 845 24.95 14.5 58.2 80 11.1 52
07:05 1016 30 845 24.95 14.6 58.3 80 11.2 52.2
07:10 1016 30 845 24.95 14.6 58.3 78 10.9 51.7
07:15 1016 30 845 24.95 14.7 58.5 80 11.3 52.3
07:20 1016 30 845 24.95 14.7 58.5 80 11.3 52.3
07:25 1016 30 845 24.95 14.9 58.8 77 10.9 51.6
07:30 1016 30 845 24.95 15 59 79 11.5 52.7
07:35 1016 30 846 24.98 15 59.1 80 11.6 53
07:40 1016 30 846 24.98 15.1 59.1 80 11.6 52.9
07:45 1016 30 846 24.98 15.1 59.1 79 11.4 52.6
07:50 1016 30 845 24.95 15.1 59.1 79 11.6 52.8
07:55 1016 30 845 24.95 15.1 59.1 78 11.3 52.3
08:00 1016 30 845 24.95 15.1 59.3 78 11.3 52.3
08:05 1016 30 845 24.95 15.2 59.4 78 11.4 52.6
08:10 1016 30 845 24.95 15.4 59.6 76 11.3 52.3
08:15 1016 30 845 24.95 15.6 60 75 11.2 52.1
08:20 1016 30 845 24.95 15.7 60.3 77 11.7 53.1
08:25 1016 30 845 24.95 15.7 60.2 78 11.8 53.3
08:30 1016 30 845 24.95 15.6 60.1 75 11.3 52.3
08:35 1016 30 845 24.95 15.6 60.1 78 11.8 53.2
08:40 1016 30 845 24.95 15.5 59.8 79 11.8 53.2
08:45 1016 30 845 24.95 15.4 59.8 78 11.7 53.1
08:50 1016 30 845 24.95 15.6 60 78 11.7 53.1
08:55 1016 30 845 24.95 16.1 60.9 78 12.2 54
09:00 1016 30 845 24.95 16.6 61.9 74 12 53.7
09:05 1016 30 845 24.95 16.6 61.9 70 11.1 52
09:10 1016 30 845 24.95 16.8 62.3 67 10.8 51.5
09:15 1016 30 845 24.95 17 62.6 69 11.3 52.3
09:20 1016 30 845 24.95 17.4 63.3 64 10.5 50.9
09:25 1016 30 845 24.95 17.7 63.8 65 11 51.8
09:30 1016 30 845 24.95 18.2 64.7 60 10.3 50.6
09:35 1016 30 845 24.95 18.6 65.6 60 10.8 51.4
09:40 1016 30 845 24.95 18.9 66 58 10.5 50.8
09:45 1016 30 845 24.95 19.5 67.1 53 9.7 49.5
09:50 1016 30 845 24.95 19.9 67.7 50 9.4 48.9
09:55 1016 30 845 24.95 20 68 49 9.2 48.6
10:00 1016 30 845 24.95 20.4 68.7 48 9.1 48.4
10:05 1016 30 845 24.95 20.7 69.3 49 9.7 49.4
10:10 1016 30 845 24.95 21.1 70 41 7.6 45.7
10:15 1016 30 845 24.95 21.5 70.7 40 7.5 45.5
10:20 1015 29.97 845 24.95 21.6 70.9 41 8.1 46.5
10:25 1015 29.97 845 24.95 21.6 70.9 37 6.6 43.9
10:30 1015 29.97 845 24.95 21.3 70.4 39 7.2 44.9
10:35 1015 29.97 845 24.95 21.8 71.3 38 6.9 44.4
10:40 1015 29.97 844 24.92 22.2 71.9 32 5 40.9
10:45 1015 29.97 844 24.92 22 71.6 39 7.7 45.9
10:50 1015 29.97 844 24.92 22.6 72.7 34 6.2 43.1
10:55 1015 29.97 844 24.92 22.8 73.1 35 6.8 44.2
11:00 1015 29.97 844 24.92 23 73.4 38 8.2 46.8
11:05 1015 29.97 844 24.92 23.2 73.8 36 7.5 45.4
11:10 1015 29.97 844 24.92 23 73.4 34 6.6 43.9
11:15 1015 29.97 844 24.92 23.4 74.2 33 6.6 43.9
11:20 1015 29.97 844 24.92 24.2 75.6 33 7 44.7
11:25 1015 29.97 844 24.92 24.3 75.7 35 7.9 46.2
11:30 1015 29.97 844 24.92 24.1 75.4 35 7.9 46.1
11:35 1015 29.97 844 24.92 24.4 75.9 35 8.2 46.7
11:40 1015 29.97 844 24.92 24.3 75.8 34 7.9 46.2
11:45 1014 29.94 844 24.92 24.7 76.5 34 8 46.4
11:50 1014 29.94 844 24.92 26.1 78.9 32 8.5 47.4
11:55 1014 29.94 844 24.92 26.2 79.1 33 8.7 47.7
12:00 1014 29.94 843 24.89 25.6 78.1 34 8.7 47.6
12:05 1014 29.94 843 24.89 25.6 78.1 31 7.6 45.7
12:10 1014 29.94 843 24.89 26.3 79.3 32 8.4 47.1
12:15 1014 29.94 843 24.89 25.9 78.5 34 8.9 48
12:20 1014 29.94 843 24.89 25.4 77.7 33 8 46.4
12:25 1014 29.94 843 24.89 26.3 79.3 31 8.3 46.9
12:30 1014 29.94 843 24.89 25.8 78.4 32 8.3 46.9
12:35 1014 29.94 843 24.89 26.3 79.4 33 9.1 48.3
12:40 1014 29.94 843 24.89 26 78.9 33 8.9 48
12:45 1014 29.94 843 24.89 26.3 79.3 32 8.7 47.6
12:50 1014 29.94 843 24.89 26.8 80.2 31 8.6 47.5
12:55 1014 29.94 843 24.89 27.2 80.9 30 8.6 47.4
13:00 1014 29.94 843 24.89 26.7 80 31 8.5 47.3
13:05 1014 29.94 843 24.89 26.9 80.4 31 8.4 47.2
13:10 1014 29.94 843 24.89 27.6 81.6 28 7.7 45.8
13:15 1014 29.94 843 24.89 26.6 79.8 31 8.3 46.9
13:20 1014 29.94 843 24.89 26.8 80.3 28 6.9 44.4
13:25 1014 29.94 843 24.89 26.9 80.4 30 8.3 46.9
13:30 1014 29.94 843 24.89 27 80.5 30 8.3 46.9
13:35 1014 29.94 843 24.89 27.2 80.9 26 6.4 43.5
13:40 1013 29.91 843 24.89 27.8 82 27 7.1 44.8
13:45 1013 29.91 843 24.89 27.2 80.9 28 7.1 44.9
13:50 1013 29.91 843 24.89 27.8 82 26 6.6 43.9
13:55 1013 29.91 842 24.86 27.9 82.1 26 7 44.6
14:00 1013 29.91 842 24.86 27.4 81.2 25 6.1 42.9
14:05 1013 29.91 842 24.86 28.2 82.8 24 5.8 42.5
14:10 1013 29.91 842 24.86 28.7 83.6 25 7 44.6
14:15 1013 29.91 842 24.86 27.5 81.5 24 5.4 41.7
14:20 1013 29.91 842 24.86 27.1 80.7 25 5.4 41.8
14:25 1013 29.91 842 24.86 27 80.6 24 5.2 41.3
14:30 1013 29.91 842 24.86 27.3 81.2 24 5.4 41.7
14:35 1013 29.91 842 24.86 28.1 82.6 24 6 42.9
14:40 1013 29.91 842 24.86 28.6 83.4 23 5.4 41.8
14:45 1013 29.91 842 24.86 28.8 83.9 22 5.4 41.6
14:50 1013 29.91 842 24.86 29.3 84.8 20 4.6 40.3
14:55 1013 29.91 842 24.86 28.7 83.7 22 5.4 41.7
15:00 1013 29.91 842 24.86 29 84.2 21 4.8 40.6
15:05 1013 29.91 842 24.86 28.5 83.2 21 4.1 39.4
15:10 1012 29.88 842 24.86 28.5 83.2 21 4.3 39.7
15:15 1012 29.88 841 24.83 29.6 85.3 20 4.3 39.7
15:20 1012 29.88 841 24.83 28.9 84.1 21 4.7 40.5
15:25 1012 29.88 841 24.83 28.4 83.1 21 4 39.2
15:30 1012 29.88 841 24.83 28.9 84 21 4.5 40.1
15:35 1012 29.88 841 24.83 28.3 82.9 21 4.2 39.6
15:40 1012 29.88 841 24.83 28.1 82.6 30 9.3 48.7
15:45 1012 29.88 841 24.83 26.8 80.3 33 9.3 48.7
15:50 1012 29.88 841 24.83 26.4 79.6 35 10.1 50.1
15:55 1012 29.88 841 24.83 26 78.8 36 9.9 49.8
16:00 1012 29.88 841 24.83 25.8 78.5 36 9.8 49.7
16:05 1012 29.88 841 24.83 25.4 77.7 41 11.4 52.5
16:10 1012 29.88 841 24.83 25.3 77.5 34 8.4 47.2
16:15 1012 29.88 841 24.83 25.6 78.1 35 9.3 48.7
16:20 1012 29.88 841 24.83 26 78.8 35 9.5 49.1
16:25 1012 29.88 841 24.83 25.8 78.4 34 8.8 47.9
16:30 1011 29.85 841 24.83 25.6 78.1 35 9.4 48.9
16:35 1011 29.85 841 24.83 25 77 38 9.9 49.9
16:40 1012 29.88 841 24.83 24.5 76.1 40 10.1 50.2
16:45 1012 29.88 841 24.83 24.6 76.3 36 8.6 47.5
16:50 1012 29.88 841 24.83 24.8 76.7 33 7.5 45.5
16:55 1011 29.85 841 24.83 24.6 76.3 32 7 44.5
17:00 1012 29.88 841 24.83 24.4 75.9 35 8 46.4
17:05 1012 29.88 841 24.83 24.7 76.4 36 8.9 48
17:10 1011 29.85 841 24.83 24.8 76.6 38 9.7 49.4
17:15 1011 29.85 841 24.83 24.3 75.7 41 10.4 50.7
17:20 1011 29.85 841 24.83 23.7 74.6 41 10 50
17:25 1012 29.88 841 24.83 23.4 74 41 9.7 49.4
17:30 1012 29.88 841 24.83 23.2 73.7 41 9.4 48.9
17:35 1012 29.88 841 24.83 23.3 73.9 37 7.9 46.3
17:40 1012 29.88 842 24.86 23 73.3 40 8.8 47.8
17:45 1013 29.91 842 24.86 21.7 71 46 9.8 49.6
17:50 1013 29.91 842 24.86 21.4 70.4 46 9.4 48.9
17:55 1013 29.91 842 24.86 20.4 68.7 57 11.7 53.1
18:00 1013 29.91 842 24.86 19.2 66.5 66 12.7 54.8
18:05 1013 29.91 843 24.89 18.8 65.8 67 12.5 54.5
18:10 1014 29.94 843 24.89 18.6 65.4 69 12.8 55
18:15 1014 29.94 843 24.89 18.2 64.8 70 12.6 54.7
18:20 1014 29.94 844 24.92 17.9 64.2 71 12.7 54.8
18:25 1014 29.94 844 24.92 17.6 63.7 72 12.6 54.7
18:30 1015 29.97 844 24.92 17.3 63.1 74 12.7 54.8
18:35 1015 29.97 844 24.92 16.9 62.5 75 12.6 54.7
18:40 1015 29.97 845 24.95 16.7 62 76 12.5 54.5
18:45 1016 30 845 24.95 16.6 61.9 77 12.5 54.5
18:50 1016 30 845 24.95 16.6 61.9 76 12.5 54.4
18:55 1016 30 845 24.95 16.6 61.9 76 12.5 54.5
19:00 1015 29.97 845 24.95 16.5 61.8 77 12.4 54.4
19:05 1015 29.97 844 24.92 16.4 61.4 79 12.7 54.9
19:10 1015 29.97 844 24.92 16.5 61.6 73 11.6 52.8
19:15 1015 29.97 844 24.92 16.5 61.6 76 12.2 53.9
19:20 1015 29.97 844 24.92 16.4 61.5 77 12.4 54.4
19:25 1015 29.97 844 24.92 16.4 61.5 76 12.3 54.1
19:30 1015 29.97 844 24.92 16.5 61.7 77 12.4 54.4
19:35 1015 29.97 844 24.92 16.5 61.7 75 12 53.7
19:40 1015 29.97 844 24.92 16.5 61.7 76 12.3 54.1
19:45 1015 29.97 844 24.92 16.7 62.1 73 11.8 53.3
19:50 1015 29.97 844 24.92 16.6 61.8 73 11.7 53.1
19:55 1015 29.97 844 24.92 16.5 61.7 73 11.7 53.1
20:00 1015 29.97 844 24.92 16.5 61.7 73 11.7 53
20:05 1015 29.97 844 24.92 16.5 61.7 73 11.8 53.2
20:10 1015 29.97 844 24.92 16.4 61.5 73 11.7 53
20:15 1015 29.97 844 24.92 16.4 61.4 73 11.5 52.7
20:20 1015 29.97 844 24.92 16.3 61.4 71 11.1 52.1
20:25 1015 29.97 844 24.92 16.3 61.4 73 11.4 52.6
20:30 1015 29.97 844 24.92 16.2 61.1 75 11.7 53
20:35 1015 29.97 844 24.92 15.9 60.7 76 11.8 53.2
20:40 1015 29.97 844 24.92 15.7 60.3 78 11.9 53.4
20:45 1015 29.97 844 24.92 15.6 60.1 76 11.4 52.6
20:50 1015 29.97 844 24.92 15.7 60.3 74 11.2 52.2
20:55 1015 29.97 844 24.92 15.8 60.4 75 11.3 52.3
21:00 1015 29.97 844 24.92 15.6 60.1 77 11.6 52.8
21:05 1015 29.97 844 24.92 15.4 59.6 78 11.5 52.7
21:10 1015 29.97 844 24.92 15.2 59.4 76 11.1 52
21:15 1015 29.97 844 24.92 15.3 59.6 75 11 51.8
21:20 1015 29.97 844 24.92 15.4 59.7 74 10.9 51.5
21:25 1015 29.97 844 24.92 15.4 59.8 74 10.9 51.6
21:30 1015 29.97 844 24.92 15.4 59.7 75 10.9 51.7
21:35 1015 29.97 844 24.92 15.3 59.5 75 10.8 51.5
21:40 1015 29.97 844 24.92 15.3 59.5 74 10.6 51.1
21:45 1015 29.97 845 24.95 15.3 59.6 74 10.7 51.3
21:50 1015 29.97 845 24.95 15.3 59.5 74 10.7 51.2
21:55 1015 29.97 845 24.95 15.3 59.6 73 10.6 51.2
22:00 1015 29.97 845 24.95 15.4 59.7 74 10.8 51.4
22:05 1015 29.97 845 24.95 15.3 59.5 75 10.8 51.5
22:10 1015 29.97 845 24.95 15.1 59.2 76 10.9 51.6
22:15 1015 29.97 845 24.95 14.9 58.8 76 10.8 51.4
22:20 1016 30 845 24.95 14.8 58.7 76 10.6 51.1
22:25 1016 30 845 24.95 14.8 58.6 76 10.7 51.2
22:30 1015 29.97 845 24.95 14.6 58.2 77 10.7 51.3
22:35 1015 29.97 845 24.95 14.4 58 78 10.7 51.3
22:40 1015 29.97 845 24.95 14.5 58.1 77 10.5 50.9
22:45 1015 29.97 845 24.95 14.4 57.9 77 10.6 51
22:50 1015 29.97 845 24.95 14.4 57.9 77 10.4 50.7
22:55 1015 29.97 845 24.95 14.4 58 76 10.3 50.5
23:00 1015 29.97 845 24.95 14.5 58 77 10.5 50.9
23:05 1015 29.97 845 24.95 14.6 58.2 75 10.2 50.4
23:10 1016 30 845 24.95 14.4 57.9 76 10.2 50.3
23:15 1015 29.97 845 24.95 14.1 57.4 77 10.1 50.2
23:20 1015 29.97 845 24.95 13.9 57 78 10.2 50.4
23:25 1015 29.97 845 24.95 13.7 56.6 79 10.1 50.2
23:30 1015 29.97 845 24.95 13.6 56.5 79 10.1 50.2
23:35 1015 29.97 845 24.95 13.5 56.3 78 9.9 49.7
23:40 1015 29.97 845 24.95 13.7 56.6 77 9.7 49.4
23:45 1015 29.97 845 24.95 13.7 56.7 78 10 50
23:50 1015 29.97 845 24.95 13.6 56.6 79 10 50.1
23:55 1016 30 845 24.95 13.6 56.5 78 9.9 49.8
24:00 1016 30 845 24.95 13.7 56.7 77 9.8 49.7